createdAt,value
2019-05-14T00:01:26.095Z,2.10
2019-05-14T00:03:56.694Z,1.73
2019-05-14T00:06:27.674Z,2.50
2019-05-14T00:08:58.454Z,2.30
2019-05-14T00:11:31.212Z,2.33
2019-05-14T00:14:02.147Z,2.93
2019-05-14T00:16:32.739Z,3.03
2019-05-14T00:19:03.394Z,5.50
2019-05-14T00:21:34.130Z,8.80
2019-05-14T00:24:11.441Z,7.10
2019-05-14T00:26:42.777Z,7.60
2019-05-14T00:29:13.463Z,6.30
2019-05-14T00:31:44.009Z,5.60
2019-05-14T00:34:14.764Z,6.23
2019-05-14T00:36:46.730Z,5.37
2019-05-14T00:39:17.291Z,3.57
2019-05-14T00:41:48.184Z,2.70
2019-05-14T00:44:18.776Z,2.37
2019-05-14T00:46:51.469Z,2.10
2019-05-14T00:49:21.560Z,2.30
2019-05-14T00:51:52.131Z,2.43
2019-05-14T00:54:22.657Z,2.30
2019-05-14T00:56:53.166Z,2.17
2019-05-14T00:59:23.715Z,2.10
2019-05-14T01:01:54.248Z,2.03
2019-05-14T01:04:24.753Z,1.90
2019-05-14T01:06:55.367Z,2.10
2019-05-14T01:09:25.976Z,2.23
2019-05-14T01:11:57.445Z,2.17
2019-05-14T01:14:28.150Z,2.13
2019-05-14T01:16:58.722Z,2.20
2019-05-14T01:19:30.987Z,2.30
2019-05-14T01:22:01.846Z,2.30
2019-05-14T01:24:32.457Z,2.30
2019-05-14T01:27:03.034Z,2.33
2019-05-14T01:29:33.651Z,2.20
2019-05-14T01:32:04.193Z,2.40
2019-05-14T01:34:34.694Z,2.63
2019-05-14T01:37:05.313Z,2.00
2019-05-14T01:39:35.808Z,2.30
2019-05-14T01:42:06.335Z,2.37
2019-05-14T01:44:41.239Z,2.40
2019-05-14T01:47:12.659Z,2.87
2019-05-14T01:49:43.513Z,2.40
2019-05-14T01:52:14.277Z,2.97
2019-05-14T01:54:44.839Z,2.50
2019-05-14T01:57:15.728Z,2.57
2019-05-14T01:59:46.439Z,2.73
2019-05-14T02:02:17.114Z,2.40
2019-05-14T02:07:37.066Z,2.77
2019-05-14T02:10:08.594Z,2.60
2019-05-14T02:12:39.371Z,2.47
2019-05-14T02:15:12.089Z,2.50
2019-05-14T02:20:32.190Z,2.60
2019-05-14T02:23:02.822Z,2.93
2019-05-14T02:25:33.438Z,2.80
2019-05-14T02:28:03.957Z,2.80
2019-05-14T02:30:48.208Z,2.70
2019-05-14T02:33:09.235Z,2.60
2019-05-14T02:35:39.775Z,3.03
2019-05-14T02:38:10.560Z,2.87
2019-05-14T02:40:41.195Z,2.97
2019-05-14T02:43:11.662Z,3.00
2019-05-14T02:46:00.827Z,2.80
2019-05-14T02:48:14.419Z,3.20
2019-05-14T02:50:45.004Z,3.23
2019-05-14T02:53:15.496Z,3.20
2019-05-14T02:55:46.114Z,2.77
2019-05-14T02:58:20.500Z,2.80
2019-05-14T03:00:49.788Z,2.93
2019-05-14T03:03:20.446Z,2.93
2019-05-14T03:05:50.954Z,2.60
2019-05-14T03:08:21.468Z,2.67
2019-05-14T03:10:52.021Z,2.80
2019-05-14T03:13:22.625Z,2.67
2019-05-14T03:15:53.830Z,2.93
2019-05-14T03:18:24.414Z,3.33
2019-05-14T03:20:54.999Z,3.20
2019-05-14T03:23:25.544Z,3.10
2019-05-14T03:25:56.085Z,3.60
2019-05-14T03:28:30.071Z,3.07
2019-05-14T03:31:03.214Z,2.93
2019-05-14T03:33:34.067Z,3.03
2019-05-14T03:36:08.923Z,3.20
2019-05-14T03:38:39.700Z,3.50
2019-05-14T03:41:13.602Z,3.60
2019-05-14T03:43:41.606Z,3.40
2019-05-14T03:46:13.223Z,3.00
2019-05-14T03:48:43.769Z,3.33
2019-05-14T03:51:14.312Z,3.40
2019-05-14T03:53:57.184Z,2.97
2019-05-14T03:56:19.190Z,3.10
2019-05-14T03:58:49.648Z,3.07
2019-05-14T04:01:20.728Z,3.10
2019-05-14T04:03:51.714Z,3.00
2019-05-14T04:06:23.360Z,2.70
2019-05-14T04:08:54.656Z,3.50
2019-05-14T04:11:29.374Z,3.20
2019-05-14T04:14:01.177Z,3.10
2019-05-14T04:16:33.811Z,3.07
2019-05-14T04:19:04.811Z,3.50
2019-05-14T04:21:39.825Z,3.67
2019-05-14T04:24:12.170Z,2.90
2019-05-14T04:26:58.299Z,2.90
2019-05-14T04:29:19.818Z,3.20
2019-05-14T04:31:52.080Z,2.90
2019-05-14T04:34:22.867Z,3.07
2019-05-14T04:36:53.539Z,2.90
2019-05-14T04:39:24.183Z,2.73
2019-05-14T04:41:54.759Z,3.20
2019-05-14T04:44:25.282Z,2.90
2019-05-14T04:46:55.891Z,3.10
2019-05-14T04:49:29.046Z,3.30
2019-05-14T04:51:59.587Z,2.90
2019-05-14T04:54:30.568Z,2.77
2019-05-14T04:57:01.213Z,2.70
2019-05-14T04:59:31.763Z,2.97
2019-05-14T05:02:02.270Z,3.30
2019-05-14T05:04:32.792Z,3.03
2019-05-14T05:07:03.453Z,2.90
2019-05-14T05:09:33.959Z,2.73
2019-05-14T05:14:53.787Z,3.23
2019-05-14T05:17:40.046Z,2.70
2019-05-14T05:19:59.082Z,3.17
2019-05-14T05:22:28.695Z,3.37
2019-05-14T05:24:59.431Z,3.43
2019-05-14T05:27:29.949Z,3.80
2019-05-14T05:30:00.462Z,3.50
2019-05-14T05:32:31.026Z,3.23
2019-05-14T05:35:01.528Z,3.20
2019-05-14T05:37:32.178Z,3.13
2019-05-14T05:40:02.803Z,3.70
2019-05-14T05:42:33.381Z,3.70
2019-05-14T05:45:03.958Z,3.20
2019-05-14T05:47:34.534Z,3.33
2019-05-14T05:50:05.424Z,3.17
2019-05-14T05:52:38.525Z,3.33
2019-05-14T05:55:09.266Z,3.47
2019-05-14T05:57:39.962Z,3.33
2019-05-14T06:00:11.041Z,3.37
2019-05-14T06:02:41.574Z,3.00
2019-05-14T06:05:12.139Z,3.43
2019-05-14T06:07:42.635Z,3.27
2019-05-14T06:10:13.248Z,3.53
2019-05-14T06:12:43.765Z,3.57
2019-05-14T06:15:14.497Z,3.73
2019-05-14T06:17:45.119Z,3.47
2019-05-14T06:20:15.982Z,3.20
2019-05-14T06:22:48.765Z,3.60
2019-05-14T06:25:20.983Z,3.60
2019-05-14T06:27:51.036Z,3.90
2019-05-14T06:30:35.341Z,3.30
2019-05-14T06:33:08.996Z,3.77
2019-05-14T06:35:39.664Z,4.33
2019-05-14T06:38:10.514Z,3.70
2019-05-14T06:40:41.929Z,3.83
2019-05-14T06:43:12.587Z,3.60
2019-05-14T06:48:30.738Z,4.07
2019-05-14T06:50:58.326Z,4.30
2019-05-14T06:53:29.382Z,4.60
2019-05-14T06:56:00.255Z,4.50
2019-05-14T06:58:30.947Z,3.90
2019-05-14T07:01:01.539Z,4.30
2019-05-14T07:03:32.190Z,4.40
2019-05-14T07:06:02.745Z,4.60
2019-05-14T07:11:22.340Z,3.93
2019-05-14T07:13:52.940Z,4.40
2019-05-14T07:16:23.539Z,4.67
2019-05-14T07:18:54.418Z,4.40
2019-05-14T07:21:25.064Z,5.00
2019-05-14T07:23:55.592Z,4.90
2019-05-14T07:26:26.130Z,4.23
2019-05-14T07:28:58.904Z,4.43
2019-05-14T07:34:19.215Z,4.53
2019-05-14T07:36:50.088Z,4.60
2019-05-14T07:39:20.569Z,4.07
2019-05-14T07:41:51.183Z,5.07
2019-05-14T07:44:21.651Z,5.33
2019-05-14T07:46:52.218Z,4.97
2019-05-14T07:49:22.782Z,4.70
2019-05-14T07:51:53.344Z,4.90
2019-05-14T07:54:28.282Z,5.57
2019-05-14T07:56:59.535Z,5.83
2019-05-14T07:59:30.109Z,4.93
2019-05-14T08:02:00.660Z,4.97
2019-05-14T08:04:31.205Z,5.33
2019-05-14T08:07:01.792Z,5.53
2019-05-14T08:09:32.404Z,5.37
2019-05-14T08:12:03.014Z,5.50
2019-05-14T08:14:42.079Z,4.80
2019-05-14T08:17:05.810Z,5.03
2019-05-14T08:19:38.356Z,5.20
2019-05-14T08:22:09.557Z,5.13
2019-05-14T08:24:40.223Z,4.80
2019-05-14T08:27:10.786Z,5.00
2019-05-14T08:29:41.298Z,5.07
2019-05-14T08:32:11.796Z,5.27
2019-05-14T08:34:42.376Z,5.40
2019-05-14T08:37:12.933Z,5.50
2019-05-14T08:39:43.394Z,4.90
2019-05-14T08:42:13.909Z,5.20
2019-05-14T08:44:47.865Z,5.03
2019-05-14T08:47:18.406Z,5.23
2019-05-14T08:49:50.847Z,5.53
2019-05-14T08:52:21.263Z,5.10
2019-05-14T08:57:34.371Z,5.13
2019-05-14T09:00:05.159Z,4.60
2019-05-14T09:02:35.792Z,5.23
2019-05-14T09:07:48.995Z,5.17
2019-05-14T09:10:19.775Z,5.30
2019-05-14T09:12:51.324Z,5.70
2019-05-14T09:15:22.023Z,5.90
2019-05-14T09:17:52.545Z,5.67
2019-05-14T09:20:23.115Z,5.20
2019-05-14T09:22:53.721Z,5.70
2019-05-14T09:25:24.408Z,5.97
2019-05-14T09:27:58.410Z,5.20
2019-05-14T09:30:28.940Z,5.37
2019-05-14T09:32:59.651Z,4.53
2019-05-14T09:35:30.184Z,4.77
2019-05-14T09:38:00.722Z,5.27
2019-05-14T09:40:31.337Z,4.90
2019-05-14T09:43:01.865Z,4.80
2019-05-14T09:45:32.461Z,4.40
2019-05-14T09:48:02.981Z,4.57
2019-05-14T09:50:33.544Z,4.63
2019-05-14T09:53:04.118Z,4.23
2019-05-14T09:55:34.667Z,3.93
2019-05-14T09:58:05.249Z,3.40
2019-05-14T10:03:24.466Z,4.33
2019-05-14T10:05:55.021Z,4.10
2019-05-14T10:08:25.607Z,4.07
2019-05-14T10:10:56.078Z,3.57
2019-05-14T10:13:28.193Z,3.50
2019-05-14T10:15:59.854Z,3.00
2019-05-14T10:18:30.384Z,2.90
2019-05-14T10:21:00.931Z,3.10
2019-05-14T10:23:31.497Z,2.70
2019-05-14T10:26:02.073Z,2.60
2019-05-14T10:28:32.675Z,2.43
2019-05-14T10:31:03.833Z,2.60
2019-05-14T10:33:34.399Z,2.80
2019-05-14T10:36:04.971Z,2.63
2019-05-14T10:38:35.662Z,2.40
2019-05-14T10:41:08.990Z,2.87
2019-05-14T10:43:39.397Z,2.70
2019-05-14T10:46:09.933Z,2.50
2019-05-14T10:48:40.501Z,2.40
2019-05-14T10:51:11.037Z,2.60
2019-05-14T10:53:41.595Z,2.90
2019-05-14T10:56:12.131Z,2.73
2019-05-14T10:58:42.708Z,2.80
2019-05-14T11:01:13.356Z,2.53
2019-05-14T11:03:43.954Z,2.73
2019-05-14T11:06:14.559Z,2.57
2019-05-14T11:08:45.188Z,2.50
2019-05-14T11:11:15.796Z,2.50
2019-05-14T11:13:46.469Z,2.10
2019-05-14T11:16:19.041Z,2.27
2019-05-14T11:18:50.049Z,2.40
2019-05-14T11:21:26.537Z,2.50
2019-05-14T11:23:53.056Z,2.30
2019-05-14T11:26:25.020Z,2.23
2019-05-14T11:28:58.345Z,2.37
2019-05-14T11:31:29.895Z,2.20
2019-05-14T11:33:59.980Z,2.27
2019-05-14T11:36:30.595Z,2.50
2019-05-14T11:39:03.988Z,2.47
2019-05-14T11:41:34.201Z,2.23
2019-05-14T11:44:04.867Z,2.30
2019-05-14T11:46:47.545Z,2.20
2019-05-14T11:49:08.884Z,2.27
2019-05-14T11:51:59.386Z,2.30
2019-05-14T11:54:12.727Z,2.57
2019-05-14T11:56:43.218Z,2.20
2019-05-14T11:59:13.805Z,3.00
2019-05-14T12:01:44.403Z,2.40
2019-05-14T12:04:14.892Z,2.33
2019-05-14T12:06:45.473Z,2.30
2019-05-14T12:09:18.755Z,2.30
2019-05-14T12:11:48.335Z,2.37
2019-05-14T12:14:19.157Z,2.60
2019-05-14T12:16:49.835Z,2.40
2019-05-14T12:19:21.413Z,2.43
2019-05-14T12:22:06.326Z,2.17
2019-05-14T12:24:25.230Z,2.33
2019-05-14T12:26:58.411Z,2.33
2019-05-14T12:29:29.142Z,2.40
2019-05-14T12:32:00.069Z,2.23
2019-05-14T12:34:30.618Z,2.50
2019-05-14T12:37:01.122Z,2.07
2019-05-14T12:39:31.714Z,2.33
2019-05-14T12:42:02.455Z,2.20
2019-05-14T12:44:33.044Z,2.60
2019-05-14T12:47:03.640Z,2.30
2019-05-14T12:49:34.264Z,2.13
2019-05-14T12:52:19.138Z,2.40
2019-05-14T12:54:38.873Z,2.20
2019-05-14T12:57:09.213Z,2.50
2019-05-14T12:59:39.787Z,2.73
2019-05-14T13:02:10.378Z,2.10
2019-05-14T13:04:41.963Z,2.20
2019-05-14T13:07:12.838Z,2.40
2019-05-14T13:09:43.387Z,2.50
2019-05-14T13:12:13.944Z,2.13
2019-05-14T13:14:44.505Z,2.30
2019-05-14T13:17:15.065Z,2.70
2019-05-14T13:19:45.644Z,2.90
2019-05-14T13:22:19.003Z,2.17
2019-05-14T13:24:49.347Z,2.20
2019-05-14T13:27:20.343Z,2.60
2019-05-14T13:29:50.888Z,2.67
2019-05-14T13:32:21.463Z,2.77
2019-05-14T13:34:52.014Z,2.43
2019-05-14T13:37:22.563Z,2.57
2019-05-14T13:39:53.269Z,2.27
2019-05-14T13:45:13.592Z,2.57
2019-05-14T13:47:44.161Z,2.90
2019-05-14T13:50:15.117Z,2.70
2019-05-14T13:53:01.961Z,2.65
2019-05-14T13:58:09.488Z,2.50
2019-05-14T14:00:39.185Z,2.70
2019-05-14T14:03:10.248Z,2.50
2019-05-14T14:05:40.827Z,2.13
2019-05-14T14:08:11.420Z,2.37
2019-05-14T14:10:45.670Z,2.20
2019-05-14T14:13:14.125Z,3.52
2019-05-14T14:15:44.721Z,2.10
2019-05-14T14:18:15.405Z,2.37
2019-05-14T14:23:31.107Z,2.30
2019-05-14T14:26:00.194Z,2.40
2019-05-14T14:28:31.762Z,2.60
2019-05-14T14:31:02.213Z,2.60
2019-05-14T14:33:32.796Z,2.40
2019-05-14T14:36:03.316Z,2.35
2019-05-14T14:38:33.891Z,2.67
2019-05-14T14:41:04.431Z,2.60
2019-05-14T14:43:35.004Z,2.85
2019-05-14T14:46:11.222Z,2.50
2019-05-14T14:48:39.577Z,2.40
2019-05-14T14:51:09.872Z,2.90
2019-05-14T14:53:52.228Z,2.50
2019-05-14T14:56:12.730Z,2.58
2019-05-14T14:58:44.175Z,2.50
2019-05-14T15:01:14.812Z,2.72
2019-05-14T15:03:45.384Z,2.80
2019-05-14T15:06:15.917Z,2.52
2019-05-14T15:08:49.368Z,3.47
2019-05-14T15:11:18.670Z,3.42
2019-05-14T15:13:49.210Z,3.20
2019-05-14T15:16:20.306Z,2.87
2019-05-14T15:18:51.966Z,3.20
2019-05-14T15:21:22.556Z,3.35
2019-05-14T15:24:05.983Z,3.10
2019-05-14T15:26:25.285Z,2.10
2019-05-14T15:28:58.244Z,2.25
2019-05-14T15:31:29.260Z,2.17
2019-05-14T15:34:00.907Z,2.30
2019-05-14T15:36:31.421Z,2.15
2019-05-14T15:39:01.986Z,2.47
2019-05-14T15:41:32.538Z,3.40
2019-05-14T15:44:03.028Z,2.30
2019-05-14T15:46:33.533Z,2.30
2019-05-14T15:49:05.123Z,2.20
2019-05-14T15:51:35.593Z,2.47
2019-05-14T15:54:31.139Z,2.45
2019-05-14T15:56:39.464Z,2.58
2019-05-14T15:59:10.149Z,2.35
2019-05-14T16:01:40.672Z,2.80
2019-05-14T16:04:11.590Z,2.52
2019-05-14T16:06:42.364Z,2.30
2019-05-14T16:09:12.944Z,2.72
2019-05-14T16:11:43.491Z,2.50
2019-05-14T16:14:14.074Z,2.92
2019-05-14T16:16:44.580Z,2.65
2019-05-14T16:19:15.131Z,2.80
2019-05-14T16:21:45.765Z,3.20
2019-05-14T16:27:11.855Z,2.58
2019-05-14T16:29:46.018Z,2.87
2019-05-14T16:32:14.643Z,2.52
2019-05-14T16:34:45.224Z,3.45
2019-05-14T16:37:18.101Z,3.40
2019-05-14T16:39:48.835Z,3.72
2019-05-14T16:42:20.991Z,10.30
2019-05-14T16:44:51.482Z,7.75
2019-05-14T16:47:22.068Z,2.95
2019-05-14T16:49:52.646Z,3.65
2019-05-14T16:52:23.199Z,4.15
2019-05-14T16:55:08.995Z,5.20
2019-05-14T16:57:26.013Z,3.58
2019-05-14T16:59:58.527Z,3.42
2019-05-14T17:02:29.783Z,3.47
2019-05-14T17:05:00.523Z,3.67
2019-05-14T17:07:32.373Z,4.62
2019-05-14T17:10:02.994Z,3.00
2019-05-14T17:12:48.367Z,4.17
2019-05-14T17:15:09.248Z,3.60
2019-05-14T17:17:38.940Z,3.95
2019-05-14T17:20:10.457Z,4.72
2019-05-14T17:22:41.070Z,3.58
2019-05-14T17:25:26.045Z,4.40
2019-05-14T17:27:43.975Z,3.80
2019-05-14T17:30:14.813Z,4.00
2019-05-14T17:32:45.340Z,3.52
2019-05-14T17:35:16.047Z,6.78
2019-05-14T17:37:48.336Z,5.62
2019-05-14T17:40:19.167Z,4.95
2019-05-14T17:42:49.753Z,6.40
2019-05-14T17:45:20.338Z,4.03
2019-05-14T17:47:50.909Z,4.70
2019-05-14T17:50:21.480Z,4.85
2019-05-14T17:55:47.139Z,3.10
2019-05-14T17:58:13.383Z,3.75
2019-05-14T18:00:43.948Z,3.70
2019-05-14T18:03:14.541Z,3.67
2019-05-14T18:05:45.131Z,4.50
2019-05-14T18:08:17.984Z,3.77
2019-05-14T18:10:49.757Z,3.75
2019-05-14T18:13:20.137Z,3.65
2019-05-14T18:15:50.742Z,3.70
2019-05-14T18:18:21.336Z,3.60
2019-05-14T18:20:51.913Z,5.17
2019-05-14T18:23:23.457Z,4.45
2019-05-14T18:26:05.012Z,6.08
2019-05-14T18:31:15.948Z,4.67
2019-05-14T18:33:49.202Z,5.15
2019-05-14T18:36:19.812Z,4.05
2019-05-14T18:38:50.397Z,4.92
2019-05-14T18:41:20.981Z,3.75
2019-05-14T18:43:51.598Z,3.95
2019-05-14T18:46:22.217Z,4.00
2019-05-14T18:48:52.861Z,4.50
2019-05-14T18:51:23.418Z,3.60
2019-05-14T18:53:53.989Z,3.47
2019-05-14T18:56:24.672Z,3.53
2019-05-14T18:58:56.306Z,4.07
2019-05-14T19:01:28.867Z,3.90
2019-05-14T19:03:59.194Z,5.13
2019-05-14T19:06:29.755Z,3.80
2019-05-14T19:09:01.491Z,3.20
2019-05-14T19:11:33.707Z,3.40
2019-05-14T19:14:04.312Z,9.20
2019-05-14T19:16:38.129Z,7.17
2019-05-14T19:19:08.180Z,5.30
2019-05-14T19:21:38.801Z,5.33
2019-05-14T19:24:09.409Z,4.03
2019-05-14T19:26:40.569Z,3.50
2019-05-14T19:29:11.227Z,2.93
2019-05-14T19:31:42.893Z,3.03
2019-05-14T19:34:13.526Z,4.00
2019-05-14T19:36:44.284Z,3.60
2019-05-14T19:39:14.846Z,4.30
2019-05-14T19:41:45.477Z,4.40
2019-05-14T19:44:18.931Z,3.90
2019-05-14T19:46:49.186Z,4.00
2019-05-14T19:49:19.937Z,4.07
2019-05-14T19:51:51.492Z,3.50
2019-05-14T19:54:22.110Z,5.00
2019-05-14T19:56:57.156Z,2.70
2019-05-14T19:59:25.993Z,3.87
2019-05-14T20:01:58.948Z,4.20
2019-05-14T20:04:29.695Z,3.60
2019-05-14T20:07:00.245Z,4.73
2019-05-14T20:09:30.890Z,5.30
2019-05-14T20:12:01.485Z,6.03
2019-05-14T20:14:32.154Z,6.70
2019-05-14T20:17:02.791Z,6.03
2019-05-14T20:19:33.366Z,6.77
2019-05-14T20:22:03.976Z,8.20
2019-05-14T20:24:34.562Z,7.63
2019-05-14T20:27:09.268Z,6.37
2019-05-14T20:29:38.041Z,4.47
2019-05-14T20:32:08.924Z,3.50
2019-05-14T20:34:40.531Z,3.80
2019-05-14T20:37:11.172Z,4.20
2019-05-14T20:39:41.814Z,3.67
2019-05-14T20:42:12.405Z,3.53
2019-05-14T20:44:42.969Z,3.60
2019-05-14T20:47:13.608Z,3.37
2019-05-14T20:49:44.607Z,3.10
2019-05-14T20:52:15.118Z,2.93
2019-05-14T20:54:45.724Z,3.17
2019-05-14T20:57:24.361Z,3.10
2019-05-14T20:59:48.522Z,3.43
2019-05-14T21:02:19.143Z,3.27
2019-05-14T21:04:54.427Z,3.17
2019-05-14T21:07:22.159Z,3.10
2019-05-14T21:09:52.782Z,3.73
2019-05-14T21:12:23.439Z,4.30
2019-05-14T21:14:54.109Z,5.30
2019-05-14T21:17:28.093Z,4.93
2019-05-14T21:19:58.019Z,4.53
2019-05-14T21:25:18.547Z,4.33
2019-05-14T21:27:52.066Z,3.80
2019-05-14T21:30:22.151Z,3.17
2019-05-14T21:32:52.889Z,3.03
2019-05-14T21:35:23.521Z,2.93
2019-05-14T21:37:54.150Z,3.23
2019-05-14T21:40:24.749Z,3.90
2019-05-14T21:42:55.382Z,3.73
2019-05-14T21:45:26.062Z,3.87
2019-05-14T21:47:59.251Z,3.73
2019-05-14T21:50:29.038Z,3.80
2019-05-14T21:52:59.810Z,3.70
2019-05-14T21:55:30.435Z,3.93
2019-05-14T21:58:01.173Z,3.90
2019-05-14T22:00:41.876Z,4.20
2019-05-14T22:03:11.725Z,3.40
2019-05-14T22:05:42.560Z,3.70
2019-05-14T22:08:13.216Z,4.10
2019-05-14T22:10:43.856Z,4.10
2019-05-14T22:13:14.518Z,4.40
2019-05-14T22:15:45.122Z,4.13
2019-05-14T22:18:20.077Z,3.80
2019-05-14T22:20:48.370Z,4.10
2019-05-14T22:23:21.142Z,3.23
2019-05-14T22:25:51.188Z,3.77
2019-05-14T22:31:11.322Z,3.70
2019-05-14T22:33:41.900Z,3.17
2019-05-14T22:36:12.475Z,4.13
2019-05-14T22:38:43.051Z,3.20
2019-05-14T22:41:13.528Z,3.97
2019-05-14T22:46:33.575Z,3.93
2019-05-14T22:49:04.112Z,3.57
2019-05-14T22:51:34.703Z,2.77
2019-05-14T22:54:05.277Z,3.40
2019-05-14T22:56:35.868Z,3.10
2019-05-14T22:59:06.448Z,3.13
2019-05-14T23:01:38.701Z,3.70
2019-05-14T23:06:53.041Z,3.50
2019-05-14T23:09:23.635Z,5.17
2019-05-14T23:11:54.135Z,4.63
2019-05-14T23:14:24.667Z,3.60
2019-05-14T23:16:55.244Z,4.07
2019-05-14T23:19:25.823Z,3.30
2019-05-14T23:21:58.029Z,3.40
2019-05-14T23:24:28.686Z,3.73
2019-05-14T23:26:59.236Z,3.50
2019-05-14T23:32:19.288Z,4.07
2019-05-14T23:34:49.848Z,3.00
2019-05-14T23:37:20.767Z,3.27
2019-05-14T23:39:51.492Z,3.20
2019-05-14T23:42:22.124Z,3.20
2019-05-14T23:44:52.706Z,3.57
2019-05-14T23:47:23.283Z,3.00
2019-05-14T23:49:53.865Z,2.47
2019-05-14T23:52:24.387Z,2.73
2019-05-14T23:54:54.865Z,2.67
2019-05-14T23:57:25.463Z,2.97
2019-05-14T23:59:57.880Z,2.80
